Nautilus — OUYX2 — position and weather

sailwx.info

Track history (hours):
 
Tides and Currents Weather Stations Pressure Air Temp Water Temp Dewpoint Dewpoint Depression Visibility Wind Speed Wind Dir Waves Ship Positions

Nautilus

Last reported at 2014-Jul-24 22:33 UTC. Time now 2014-Jul-24 23:00 UTC.
Position N 56°11' E 012°22'.

Length 120 m; draft 5.1 m.

Type: Ship (hazmat cat C). MMSI: 219425000.

Date/timePositionNaut miles runAvg speedWind from/ knotsBaromVisibWave heightAir tempDewpointWater temp
2014-Jul-24 22:33N 56°11' E 012°22'1313.1
2014-Jul-24 21:34N 56°02' E 012°40'1313.4
2014-Jul-24 20:33N 55°49' E 012°44'9 8.5
2014-Jul-24 19:32N 55°41' E 012°38'0 0.0
2014-Jul-24 18:32N 55°41' E 012°38'0 0.0
2014-Jul-24 17:32N 55°41' E 012°38'0 0.0
2014-Jul-24 16:32N 55°41' E 012°38'0 0.0
2014-Jul-24 15:32N 55°41' E 012°38'0 0.0
2014-Jul-24 14:32N 55°41' E 012°38'0 0.0
2014-Jul-24 13:32N 55°41' E 012°38'0 0.0
2014-Jul-24 12:32N 55°41' E 012°38'1 1.1
2014-Jul-24 11:33N 55°40' E 012°40'1010.0
2014-Jul-24 10:34N 55°31' E 012°42'1111.3
2014-Jul-24 09:33N 55°19' E 012°40'1212.4
2014-Jul-24 08:33N 55°07' E 012°41'1212.2
2014-Jul-24 07:33N 54°55' E 012°43'1111.4
2014-Jul-24 06:33N 54°44' E 012°39'1212.4
2014-Jul-24 05:33N 54°37' E 012°22'1212.4
2014-Jul-24 04:33N 54°26' E 012°11'1212.5
2014-Jul-24 03:34N 54°25' E 011°50'1312.6
2014-Jul-24 02:33N 54°30' E 011°30'1312.6
2014-Jul-24 01:34N 54°35' E 011°11'1312.8
2014-Jul-24 00:34N 54°34' E 010°48'1313.4
2014-Jul-23 23:33N 54°31' E 010°26'46 7.4
2014-Jul-23 17:24N 54°06' E 009°20'8 8.9
2014-Jul-23 16:27N 53°58' E 009°16'6 7.1
2014-Jul-23 15:33N 53°54' E 009°09'2 1.5
2014-Jul-23 14:31N 53°53' E 009°06'4 4.5
2014-Jul-23 13:33N 53°51' E 008°59'9 9.3
2014-Jul-23 12:34N 53°52' E 008°44'1010.0
2014-Jul-23 11:33N 53°58' E 008°30'1211.9
2014-Jul-23 10:33N 53°60' E 008°10'1312.7
2014-Jul-23 09:33N 53°57' E 007°49'1413.9
2014-Jul-23 08:34N 53°54' E 007°26'1414.1
2014-Jul-23 07:33N 53°51' E 007°03'1414.4
2014-Jul-23 06:33N 53°48' E 006°39'1514.7
2014-Jul-23 05:33N 53°44' E 006°15'1514.7
2014-Jul-23 04:33N 53°39' E 005°51'1514.6
2014-Jul-23 03:33N 53°35' E 005°28'1514.7
2014-Jul-23 02:33N 53°30' E 005°05'1414.3
2014-Jul-23 01:33N 53°23' E 004°43'1514.8
2014-Jul-23 00:32N 53°10' E 004°31'1414.5
2014-Jul-22 23:33N 52°57' E 004°20'1413.9
2014-Jul-22 22:34N 52°45' E 004°09'1413.6
2014-Jul-22 21:33N 52°34' E 003°57'1313.1
2014-Jul-22 20:33N 52°21' E 003°53'1312.7
2014-Jul-22 19:34N 52°08' E 003°54'9 8.7
2014-Jul-22 18:34N 52°00' E 004°01'1312.9
2014-Jul-22 17:33N 51°54' E 004°18'1 0.6
2014-Jul-22 16:28N 51°53' E 004°18'0 0.0
2014-Jul-22 15:28N 51°53' E 004°18'0 0.0
2014-Jul-22 14:28N 51°53' E 004°18'0 0.0
2014-Jul-22 13:31N 51°53' E 004°18'0 0.0
2014-Jul-22 12:31N 51°53' E 004°18'0 0.0
2014-Jul-22 11:31N 51°53' E 004°18'0 0.0
2014-Jul-22 10:28N 51°53' E 004°18'0 0.0
2014-Jul-22 09:28N 51°53' E 004°18'0 0.0
2014-Jul-22 08:28N 51°53' E 004°18'0 0.0
2014-Jul-22 07:28N 51°53' E 004°18'0 0.0
2014-Jul-22 06:32N 51°53' E 004°18'0 0.0
2014-Jul-22 05:31N 51°53' E 004°18'0 0.0
2014-Jul-22 04:19N 51°53' E 004°18'0 0.0
2014-Jul-22 03:31N 51°53' E 004°18'0 0.0
2014-Jul-22 02:25N 51°53' E 004°18'0 0.0
2014-Jul-22 01:28N 51°53' E 004°18'0 0.0
2014-Jul-22 00:31N 51°53' E 004°18'0 0.0
2014-Jul-21 23:31N 51°53' E 004°18'0 0.0
2014-Jul-21 22:28N 51°53' E 004°18'0 0.0
2014-Jul-21 21:31N 51°53' E 004°18'0 0.0
2014-Jul-21 20:31N 51°53' E 004°18'0 0.0
2014-Jul-21 20:16N 51°53' E 004°18'0 0.0
2014-Jul-21 19:31N 51°53' E 004°18'0 0.0
2014-Jul-21 18:32N 51°53' E 004°18'0 0.0
2014-Jul-21 16:25N 51°53' E 004°18'0 0.0
2014-Jul-21 15:31N 51°53' E 004°18'0 0.0
2014-Jul-21 14:31N 51°53' E 004°18'0 0.0
2014-Jul-21 13:31N 51°53' E 004°18'0 0.0
2014-Jul-21 12:28N 51°53' E 004°18'0 0.0
2014-Jul-21 11:28N 51°53' E 004°18'0 0.0
2014-Jul-21 10:28N 51°53' E 004°18'0 0.0
2014-Jul-21 09:22N 51°53' E 004°18'0 0.0
2014-Jul-21 08:25N 51°53' E 004°18'0 0.0
2014-Jul-21 07:31N 51°53' E 004°18'0 0.0
2014-Jul-21 06:31N 51°53' E 004°18'0 0.0
2014-Jul-21 05:28N 51°53' E 004°18'0 0.0
2014-Jul-21 04:29N 51°53' E 004°18'1 0.9
2014-Jul-21 03:33N 51°54' E 004°18'8 8.1
2014-Jul-21 02:33N 51°58' E 004°07'1110.9
2014-Jul-21 01:33N 51°59' E 003°50'6 6.3
2014-Jul-21 00:33N 52°03' E 003°41'5 4.5
2014-Jul-20 23:30N 52°07' E 003°41'0 0.0
2014-Jul-20 22:33N 52°07' E 003°40'0 0.0
2014-Jul-20 21:21N 52°07' E 003°40'0 0.0
2014-Jul-20 20:33N 52°08' E 003°40'0 0.0
2014-Jul-20 19:24N 52°08' E 003°40'0 0.1
2014-Jul-20 18:33N 52°07' E 003°40'0 0.0
2014-Jul-20 17:18N 52°07' E 003°40'0 0.0
2014-Jul-20 16:33N 52°07' E 003°40'0 0.0
2014-Jul-20 15:33N 52°07' E 003°40'0 0.0
2014-Jul-20 14:33N 52°07' E 003°40'0 0.0
2014-Jul-20 13:21N 52°07' E 003°40'0 0.0
2014-Jul-20 12:33N 52°07' E 003°40'0 0.1
2014-Jul-20 11:30N 52°07' E 003°40'0 0.0
2014-Jul-20 10:33N 52°07' E 003°40'0 0.0
2014-Jul-20 08:33N 52°08' E 003°40'0 0.0
2014-Jul-20 07:30N 52°08' E 003°40'0 0.0
2014-Jul-20 06:33N 52°08' E 003°40'0 0.1
2014-Jul-20 05:30N 52°07' E 003°40'0 0.1
2014-Jul-20 04:33N 52°07' E 003°40'0 0.0
2014-Jul-20 03:33N 52°07' E 003°40'0 0.0
2014-Jul-20 02:33N 52°07' E 003°40'0 0.0
2014-Jul-20 01:33N 52°07' E 003°40'0 0.0
2014-Jul-20 00:33N 52°07' E 003°40'0 0.1
2014-Jul-19 23:30N 52°07' E 003°41'5 4.8
2014-Jul-19 22:33N 52°10' E 003°46'1111.5
2014-Jul-19 21:33N 52°22' E 003°49'1211.8
2014-Jul-19 20:33N 52°33' E 003°53'2711.7
2014-Jul-19 18:13N 52°60' E 004°05'1013.2
2014-Jul-19 17:28N 53°06' E 004°18'1213.3
2014-Jul-19 16:33N 53°16' E 004°29'1413.6
2014-Jul-19 15:33N 53°29' E 004°36'1313.1
2014-Jul-19 14:33N 53°42' E 004°42'1312.7
2014-Jul-19 13:33N 53°54' E 004°48'1312.5
2014-Jul-19 12:33N 54°06' E 004°55'1212.5
2014-Jul-19 11:33N 54°16' E 005°08'1312.6
2014-Jul-19 10:33N 54°25' E 005°22'1313.1
2014-Jul-19 09:33N 54°35' E 005°38'1313.5
2014-Jul-19 08:33N 54°44' E 005°54'1513.7
2014-Jul-19 07:27N 54°53' E 006°15'1213.4
2014-Jul-19 06:33N 55°01' E 006°31'2523.0
2014-Jul-19 05:28N 55°18' E 007°04'2 1.8
2014-Jul-19 04:31N 55°18' E 007°07'1313.2
2014-Jul-19 03:33N 55°19' E 007°29'1312.8
2014-Jul-19 02:33N 55°21' E 007°51'9 8.7
2014-Jul-19 01:33N 55°24' E 008°06'0 0.0
2014-Jul-19 00:30N 55°24' E 008°06'0 0.0
2014-Jul-18 23:27N 55°24' E 008°06'0 0.0
2014-Jul-18 22:33N 55°24' E 008°06'0 0.0
2014-Jul-18 21:30N 55°24' E 008°06'0 0.0
2014-Jul-18 20:33N 55°24' E 008°06'0 0.0
2014-Jul-18 19:33N 55°24' E 008°06'0 0.0
2014-Jul-18 18:33N 55°24' E 008°06'0 0.0
2014-Jul-18 17:33N 55°24' E 008°06'5 5.4
2014-Jul-18 16:34N 55°26' E 008°15'7 6.5
2014-Jul-18 15:31N 55°28' E 008°26'0 0.0
2014-Jul-18 14:31N 55°28' E 008°26'0 0.0
2014-Jul-18 13:28N 55°28' E 008°26'0 0.0
2014-Jul-18 12:22N 55°28' E 008°26'0 0.0
2014-Jul-18 11:28N 55°28' E 008°26'0 0.0
2014-Jul-18 10:31N 55°28' E 008°26'0 0.0
2014-Jul-18 09:28N 55°28' E 008°26'0 0.0
2014-Jul-18 08:28N 55°28' E 008°26'0 0.0
2014-Jul-18 07:31N 55°28' E 008°26'0 0.0
2014-Jul-18 06:31N 55°28' E 008°26'0 0.0
2014-Jul-18 05:28N 55°28' E 008°26'0 0.0
2014-Jul-18 04:28N 55°28' E 008°26'0 0.0
2014-Jul-18 03:31N 55°28' E 008°26'0 0.0
2014-Jul-18 02:28N 55°28' E 008°26'0 0.0
2014-Jul-18 01:34N 55°28' E 008°26'2 2.3
2014-Jul-18 00:34N 55°29' E 008°22'1010.4
2014-Jul-17 23:33N 55°24' E 008°06'1110.5
2014-Jul-17 22:34N 55°25' E 007°47'1211.5
2014-Jul-17 21:33N 55°31' E 007°30'1110.6
2014-Jul-17 20:33N 55°40' E 007°18'1211.1
2014-Jul-17 19:30N 55°50' E 007°09'1311.2
2014-Jul-17 18:19N 56°02' E 006°58'911.2
2014-Jul-17 17:33N 56°09' E 006°50'1111.2
2014-Jul-17 16:33N 56°19' E 006°41'1211.5
2014-Jul-17 15:33N 56°29' E 006°31'  
Track history (hours):
 
Tides and Currents Weather Stations Pressure Air Temp Water Temp Dewpoint Dewpoint Depression Visibility Wind Speed Wind Dir Waves Ship Positions

Nautilus

Last reported at 2014-Jul-24 22:33 UTC. Time now 2014-Jul-24 23:00 UTC.
Position N 56°11' E 012°22'.

Length 120 m; draft 5.1 m.

Type: Ship (hazmat cat C). MMSI: 219425000.

Date/timePositionNaut miles runAvg speedWind from/ knotsBaromVisibWave heightAir tempDewpointWater temp
2014-Jul-24 22:33N 56°11' E 012°22'1313.1
2014-Jul-24 21:34N 56°02' E 012°40'1313.4
2014-Jul-24 20:33N 55°49' E 012°44'9 8.5
2014-Jul-24 19:32N 55°41' E 012°38'0 0.0
2014-Jul-24 18:32N 55°41' E 012°38'0 0.0
2014-Jul-24 17:32N 55°41' E 012°38'0 0.0
2014-Jul-24 16:32N 55°41' E 012°38'0 0.0
2014-Jul-24 15:32N 55°41' E 012°38'0 0.0
2014-Jul-24 14:32N 55°41' E 012°38'0 0.0
2014-Jul-24 13:32N 55°41' E 012°38'0 0.0
2014-Jul-24 12:32N 55°41' E 012°38'1 1.1
2014-Jul-24 11:33N 55°40' E 012°40'1010.0
2014-Jul-24 10:34N 55°31' E 012°42'1111.3
2014-Jul-24 09:33N 55°19' E 012°40'1212.4
2014-Jul-24 08:33N 55°07' E 012°41'1212.2
2014-Jul-24 07:33N 54°55' E 012°43'1111.4
2014-Jul-24 06:33N 54°44' E 012°39'1212.4
2014-Jul-24 05:33N 54°37' E 012°22'1212.4
2014-Jul-24 04:33N 54°26' E 012°11'1212.5
2014-Jul-24 03:34N 54°25' E 011°50'1312.6
2014-Jul-24 02:33N 54°30' E 011°30'1312.6
2014-Jul-24 01:34N 54°35' E 011°11'1312.8
2014-Jul-24 00:34N 54°34' E 010°48'1313.4
2014-Jul-23 23:33N 54°31' E 010°26'46 7.4
2014-Jul-23 17:24N 54°06' E 009°20'8 8.9
2014-Jul-23 16:27N 53°58' E 009°16'6 7.1
2014-Jul-23 15:33N 53°54' E 009°09'2 1.5
2014-Jul-23 14:31N 53°53' E 009°06'4 4.5
2014-Jul-23 13:33N 53°51' E 008°59'9 9.3
2014-Jul-23 12:34N 53°52' E 008°44'1010.0
2014-Jul-23 11:33N 53°58' E 008°30'1211.9
2014-Jul-23 10:33N 53°60' E 008°10'1312.7
2014-Jul-23 09:33N 53°57' E 007°49'1413.9
2014-Jul-23 08:34N 53°54' E 007°26'1414.1
2014-Jul-23 07:33N 53°51' E 007°03'1414.4
2014-Jul-23 06:33N 53°48' E 006°39'1514.7
2014-Jul-23 05:33N 53°44' E 006°15'1514.7
2014-Jul-23 04:33N 53°39' E 005°51'1514.6
2014-Jul-23 03:33N 53°35' E 005°28'1514.7
2014-Jul-23 02:33N 53°30' E 005°05'1414.3
2014-Jul-23 01:33N 53°23' E 004°43'1514.8
2014-Jul-23 00:32N 53°10' E 004°31'1414.5
2014-Jul-22 23:33N 52°57' E 004°20'1413.9
2014-Jul-22 22:34N 52°45' E 004°09'1413.6
2014-Jul-22 21:33N 52°34' E 003°57'1313.1
2014-Jul-22 20:33N 52°21' E 003°53'1312.7
2014-Jul-22 19:34N 52°08' E 003°54'9 8.7
2014-Jul-22 18:34N 52°00' E 004°01'1312.9
2014-Jul-22 17:33N 51°54' E 004°18'1 0.6
2014-Jul-22 16:28N 51°53' E 004°18'0 0.0
2014-Jul-22 15:28N 51°53' E 004°18'0 0.0
2014-Jul-22 14:28N 51°53' E 004°18'0 0.0
2014-Jul-22 13:31N 51°53' E 004°18'0 0.0
2014-Jul-22 12:31N 51°53' E 004°18'0 0.0
2014-Jul-22 11:31N 51°53' E 004°18'0 0.0
2014-Jul-22 10:28N 51°53' E 004°18'0 0.0
2014-Jul-22 09:28N 51°53' E 004°18'0 0.0
2014-Jul-22 08:28N 51°53' E 004°18'0 0.0
2014-Jul-22 07:28N 51°53' E 004°18'0 0.0
2014-Jul-22 06:32N 51°53' E 004°18'0 0.0
2014-Jul-22 05:31N 51°53' E 004°18'0 0.0
2014-Jul-22 04:19N 51°53' E 004°18'0 0.0
2014-Jul-22 03:31N 51°53' E 004°18'0 0.0
2014-Jul-22 02:25N 51°53' E 004°18'0 0.0
2014-Jul-22 01:28N 51°53' E 004°18'0 0.0
2014-Jul-22 00:31N 51°53' E 004°18'0 0.0
2014-Jul-21 23:31N 51°53' E 004°18'0 0.0
2014-Jul-21 22:28N 51°53' E 004°18'0 0.0
2014-Jul-21 21:31N 51°53' E 004°18'0 0.0
2014-Jul-21 20:31N 51°53' E 004°18'0 0.0
2014-Jul-21 20:16N 51°53' E 004°18'0 0.0
2014-Jul-21 19:31N 51°53' E 004°18'0 0.0
2014-Jul-21 18:32N 51°53' E 004°18'0 0.0
2014-Jul-21 16:25N 51°53' E 004°18'0 0.0
2014-Jul-21 15:31N 51°53' E 004°18'0 0.0
2014-Jul-21 14:31N 51°53' E 004°18'0 0.0
2014-Jul-21 13:31N 51°53' E 004°18'0 0.0
2014-Jul-21 12:28N 51°53' E 004°18'0 0.0
2014-Jul-21 11:28N 51°53' E 004°18'0 0.0
2014-Jul-21 10:28N 51°53' E 004°18'0 0.0
2014-Jul-21 09:22N 51°53' E 004°18'0 0.0
2014-Jul-21 08:25N 51°53' E 004°18'0 0.0
2014-Jul-21 07:31N 51°53' E 004°18'0 0.0
2014-Jul-21 06:31N 51°53' E 004°18'0 0.0
2014-Jul-21 05:28N 51°53' E 004°18'0 0.0
2014-Jul-21 04:29N 51°53' E 004°18'1 0.9
2014-Jul-21 03:33N 51°54' E 004°18'8 8.1
2014-Jul-21 02:33N 51°58' E 004°07'1110.9
2014-Jul-21 01:33N 51°59' E 003°50'6 6.3
2014-Jul-21 00:33N 52°03' E 003°41'5 4.5
2014-Jul-20 23:30N 52°07' E 003°41'0 0.0
2014-Jul-20 22:33N 52°07' E 003°40'0 0.0
2014-Jul-20 21:21N 52°07' E 003°40'0 0.0
2014-Jul-20 20:33N 52°08' E 003°40'0 0.0
2014-Jul-20 19:24N 52°08' E 003°40'0 0.1
2014-Jul-20 18:33N 52°07' E 003°40'0 0.0
2014-Jul-20 17:18N 52°07' E 003°40'0 0.0
2014-Jul-20 16:33N 52°07' E 003°40'0 0.0
2014-Jul-20 15:33N 52°07' E 003°40'0 0.0
2014-Jul-20 14:33N 52°07' E 003°40'0 0.0
2014-Jul-20 13:21N 52°07' E 003°40'0 0.0
2014-Jul-20 12:33N 52°07' E 003°40'0 0.1
2014-Jul-20 11:30N 52°07' E 003°40'0 0.0
2014-Jul-20 10:33N 52°07' E 003°40'0 0.0
2014-Jul-20 08:33N 52°08' E 003°40'0 0.0
2014-Jul-20 07:30N 52°08' E 003°40'0 0.0
2014-Jul-20 06:33N 52°08' E 003°40'0 0.1
2014-Jul-20 05:30N 52°07' E 003°40'0 0.1
2014-Jul-20 04:33N 52°07' E 003°40'0 0.0
2014-Jul-20 03:33N 52°07' E 003°40'0 0.0
2014-Jul-20 02:33N 52°07' E 003°40'0 0.0
2014-Jul-20 01:33N 52°07' E 003°40'0 0.0
2014-Jul-20 00:33N 52°07' E 003°40'0 0.1
2014-Jul-19 23:30N 52°07' E 003°41'5 4.8
2014-Jul-19 22:33N 52°10' E 003°46'1111.5
2014-Jul-19 21:33N 52°22' E 003°49'1211.8
2014-Jul-19 20:33N 52°33' E 003°53'2711.7
2014-Jul-19 18:13N 52°60' E 004°05'1013.2
2014-Jul-19 17:28N 53°06' E 004°18'1213.3
2014-Jul-19 16:33N 53°16' E 004°29'1413.6
2014-Jul-19 15:33N 53°29' E 004°36'1313.1
2014-Jul-19 14:33N 53°42' E 004°42'1312.7
2014-Jul-19 13:33N 53°54' E 004°48'1312.5
2014-Jul-19 12:33N 54°06' E 004°55'1212.5
2014-Jul-19 11:33N 54°16' E 005°08'1312.6
2014-Jul-19 10:33N 54°25' E 005°22'1313.1
2014-Jul-19 09:33N 54°35' E 005°38'1313.5
2014-Jul-19 08:33N 54°44' E 005°54'1513.7
2014-Jul-19 07:27N 54°53' E 006°15'1213.4
2014-Jul-19 06:33N 55°01' E 006°31'2523.0
2014-Jul-19 05:28N 55°18' E 007°04'2 1.8
2014-Jul-19 04:31N 55°18' E 007°07'1313.2
2014-Jul-19 03:33N 55°19' E 007°29'1312.8
2014-Jul-19 02:33N 55°21' E 007°51'9 8.7
2014-Jul-19 01:33N 55°24' E 008°06'0 0.0
2014-Jul-19 00:30N 55°24' E 008°06'0 0.0
2014-Jul-18 23:27N 55°24' E 008°06'0 0.0
2014-Jul-18 22:33N 55°24' E 008°06'0 0.0
2014-Jul-18 21:30N 55°24' E 008°06'0 0.0
2014-Jul-18 20:33N 55°24' E 008°06'0 0.0
2014-Jul-18 19:33N 55°24' E 008°06'0 0.0
2014-Jul-18 18:33N 55°24' E 008°06'0 0.0
2014-Jul-18 17:33N 55°24' E 008°06'5 5.4
2014-Jul-18 16:34N 55°26' E 008°15'7 6.5
2014-Jul-18 15:31N 55°28' E 008°26'0 0.0
2014-Jul-18 14:31N 55°28' E 008°26'0 0.0
2014-Jul-18 13:28N 55°28' E 008°26'0 0.0
2014-Jul-18 12:22N 55°28' E 008°26'0 0.0
2014-Jul-18 11:28N 55°28' E 008°26'0 0.0
2014-Jul-18 10:31N 55°28' E 008°26'0 0.0
2014-Jul-18 09:28N 55°28' E 008°26'0 0.0
2014-Jul-18 08:28N 55°28' E 008°26'0 0.0
2014-Jul-18 07:31N 55°28' E 008°26'0 0.0
2014-Jul-18 06:31N 55°28' E 008°26'0 0.0
2014-Jul-18 05:28N 55°28' E 008°26'0 0.0
2014-Jul-18 04:28N 55°28' E 008°26'0 0.0
2014-Jul-18 03:31N 55°28' E 008°26'0 0.0
2014-Jul-18 02:28N 55°28' E 008°26'0 0.0
2014-Jul-18 01:34N 55°28' E 008°26'2 2.3
2014-Jul-18 00:34N 55°29' E 008°22'1010.4
2014-Jul-17 23:33N 55°24' E 008°06'1110.5
2014-Jul-17 22:34N 55°25' E 007°47'1211.5
2014-Jul-17 21:33N 55°31' E 007°30'1110.6
2014-Jul-17 20:33N 55°40' E 007°18'1211.1
2014-Jul-17 19:30N 55°50' E 007°09'1311.2
2014-Jul-17 18:19N 56°02' E 006°58'911.2
2014-Jul-17 17:33N 56°09' E 006°50'1111.2
2014-Jul-17 16:33N 56°19' E 006°41'1211.5
2014-Jul-17 15:33N 56°29' E 006°31'  

Dump ship's entire track history